Eagles Mere, Pennsylvania
Current Conditions -  °F | °C
As of 12:54 PM on Monday 24 Nov 2014 (Local Time) from KIPT Reporting Station
Scattered Clouds Scattered Clouds  
Wind Chill: 67°   Ceiling: Unl
Heat Index: 67°   Visibility: 10mi
Dew Point: 52°   Wind: 8mph
Humidity: 59%   Direction: 170°S
Pressure: 29.46"   Gusts: 31mph
Location:  41.41°N, 76.58°W
Report Text: KIPT 241754Z 17007G27KT 110V240 10SM SCT036 19/11 A2946 RMK AO2 PK WND 13029/1729 SLP974 T01940111 10200 20156 58027
Loading
Personal Weather Stations






























Interactive Weather Map New forecast layout! Learn more

10-Day Weather Forecast

Advertisements
Track Severe Weather on mobile